CLW92 OKKK-UCFO
Flight info
| Callsign | CLW92 |
|---|---|
| Flight time | 3h 10m |
| Altitude | 35000 |
| Route | SESRU G669 KHG A788 SYZ G663 RAMIL/N0453F370 G663 MSD A647 NAZAR A847 NINOP B713 DERKI/K0833F370 Q678 EDOSU Y300 PF Z235 ENOVO T525 AFEKE |
| Aircraft | B738/M-SDE2E3FGHIRWXY/LB1 |
Departure
| Time | 2026-05-07 17:22 |
|---|---|
| Airport | Kuwait International Airport (OKKK) |
Arrival
| Time | 2026-05-07 20:32 |
|---|---|
| Airport | Osh International Airport (UCFO) |
| Time | Latitude | Longitude | Altitude | Speed | Heading |
|---|---|---|---|---|---|
| 2026-05-07 16:54 | 29.25187 | 47.95951 | 169 ft | 0 kts | 67° |
| 2026-05-07 17:07 | 29.25186 | 47.95949 | 169 ft | 2 kts | 66° |
| 2026-05-07 17:07 | 29.25179 | 47.95932 | 168 ft | 2 kts | 63° |
| 2026-05-07 17:07 | 29.25172 | 47.95915 | 168 ft | 2 kts | 66° |
| 2026-05-07 17:08 | 29.25172 | 47.95899 | 167 ft | 2 kts | 156° |
| 2026-05-07 17:08 | 29.25175 | 47.95898 | 167 ft | 0 kts | 154° |
| 2026-05-07 17:11 | 29.25155 | 47.95909 | 167 ft | 7 kts | 155° |
| 2026-05-07 17:11 | 29.25097 | 47.95939 | 167 ft | 9 kts | 155° |
| 2026-05-07 17:12 | 29.25045 | 47.95947 | 167 ft | 5 kts | 223° |
| 2026-05-07 17:12 | 29.25015 | 47.95901 | 165 ft | 10 kts | 211° |
| 2026-05-07 17:12 | 29.24949 | 47.95924 | 164 ft | 10 kts | 154° |
| 2026-05-07 17:12 | 29.24884 | 47.95959 | 164 ft | 10 kts | 155° |
| 2026-05-07 17:13 | 29.24812 | 47.95997 | 164 ft | 13 kts | 155° |
| 2026-05-07 17:13 | 29.24725 | 47.96043 | 164 ft | 15 kts | 155° |
| 2026-05-07 17:13 | 29.24624 | 47.96097 | 164 ft | 17 kts | 155° |
| 2026-05-07 17:13 | 29.24512 | 47.96157 | 164 ft | 19 kts | 155° |
| 2026-05-07 17:14 | 29.24392 | 47.96221 | 164 ft | 20 kts | 155° |
| 2026-05-07 17:14 | 29.24268 | 47.96287 | 163 ft | 19 kts | 155° |
| 2026-05-07 17:14 | 29.24148 | 47.96350 | 162 ft | 19 kts | 156° |
| 2026-05-07 17:14 | 29.24034 | 47.96410 | 163 ft | 18 kts | 155° |
| 2026-05-07 17:15 | 29.23921 | 47.96470 | 163 ft | 18 kts | 155° |
| 2026-05-07 17:15 | 29.23813 | 47.96529 | 163 ft | 17 kts | 155° |
| 2026-05-07 17:15 | 29.23708 | 47.96585 | 164 ft | 16 kts | 154° |
| 2026-05-07 17:15 | 29.23607 | 47.96639 | 166 ft | 16 kts | 155° |
| 2026-05-07 17:16 | 29.23510 | 47.96690 | 166 ft | 15 kts | 154° |
| 2026-05-07 17:16 | 29.23417 | 47.96740 | 166 ft | 14 kts | 155° |
| 2026-05-07 17:16 | 29.23328 | 47.96787 | 167 ft | 14 kts | 155° |
| 2026-05-07 17:16 | 29.23243 | 47.96832 | 166 ft | 13 kts | 155° |
| 2026-05-07 17:17 | 29.23158 | 47.96877 | 165 ft | 14 kts | 155° |
| 2026-05-07 17:17 | 29.23062 | 47.96928 | 167 ft | 16 kts | 154° |
| 2026-05-07 17:17 | 29.22953 | 47.96985 | 166 ft | 19 kts | 155° |
| 2026-05-07 17:17 | 29.22827 | 47.97052 | 166 ft | 21 kts | 155° |
| 2026-05-07 17:18 | 29.22693 | 47.97123 | 165 ft | 21 kts | 155° |
| 2026-05-07 17:18 | 29.22563 | 47.97193 | 165 ft | 20 kts | 155° |
| 2026-05-07 17:18 | 29.22436 | 47.97260 | 165 ft | 20 kts | 155° |
| 2026-05-07 17:18 | 29.22313 | 47.97325 | 165 ft | 19 kts | 155° |
| 2026-05-07 17:19 | 29.22195 | 47.97387 | 164 ft | 18 kts | 155° |
| 2026-05-07 17:19 | 29.22081 | 47.97449 | 164 ft | 18 kts | 154° |
| 2026-05-07 17:19 | 29.21969 | 47.97504 | 164 ft | 17 kts | 174° |
| 2026-05-07 17:19 | 29.21939 | 47.97402 | 163 ft | 17 kts | 291° |
| 2026-05-07 17:20 | 29.21982 | 47.97283 | 163 ft | 16 kts | 292° |
| 2026-05-07 17:20 | 29.22019 | 47.97237 | 164 ft | 0 kts | 334° |
| 2026-05-07 17:20 | 29.22037 | 47.97227 | 164 ft | 12 kts | 333° |
| 2026-05-07 17:20 | 29.22192 | 47.97143 | 162 ft | 38 kts | 335° |
| 2026-05-07 17:21 | 29.22592 | 47.96930 | 161 ft | 92 kts | 335° |
| 2026-05-07 17:21 | 29.23337 | 47.96534 | 162 ft | 142 kts | 335° |
| 2026-05-07 17:21 | 29.24288 | 47.96044 | 484 ft | 156 kts | 336° |
| 2026-05-07 17:21 | 29.25357 | 47.95530 | 786 ft | 176 kts | 336° |
| 2026-05-07 17:22 | 29.26478 | 47.95005 | 1467 ft | 169 kts | 337° |
| 2026-05-07 17:22 | 29.27578 | 47.94399 | 2138 ft | 178 kts | 333° |
| 2026-05-07 17:22 | 29.28704 | 47.93760 | 2901 ft | 182 kts | 334° |
| 2026-05-07 17:22 | 29.29854 | 47.93126 | 3649 ft | 186 kts | 333° |
| 2026-05-07 17:23 | 29.31070 | 47.92467 | 4167 ft | 205 kts | 333° |
| 2026-05-07 17:23 | 29.32404 | 47.91753 | 4598 ft | 217 kts | 333° |
| 2026-05-07 17:23 | 29.33879 | 47.91282 | 5107 ft | 225 kts | 355° |
| 2026-05-07 17:23 | 29.35461 | 47.91500 | 5611 ft | 235 kts | 15° |
| 2026-05-07 17:24 | 29.36913 | 47.92414 | 6125 ft | 243 kts | 37° |
| 2026-05-07 17:24 | 29.38092 | 47.93828 | 6604 ft | 248 kts | 56° |
| 2026-05-07 17:24 | 29.38973 | 47.95538 | 6962 ft | 262 kts | 62° |
| 2026-05-07 17:24 | 29.39854 | 47.97455 | 7163 ft | 279 kts | 63° |
| 2026-05-07 17:25 | 29.40770 | 47.99458 | 7624 ft | 287 kts | 62° |
| 2026-05-07 17:25 | 29.41713 | 48.01491 | 8245 ft | 291 kts | 62° |
| 2026-05-07 17:25 | 29.42664 | 48.03526 | 9073 ft | 289 kts | 61° |
| 2026-05-07 17:25 | 29.43531 | 48.05631 | 9663 ft | 300 kts | 76° |
| 2026-05-07 17:26 | 29.43573 | 48.08058 | 10011 ft | 311 kts | 107° |
| 2026-05-07 17:26 | 29.42875 | 48.10426 | 10491 ft | 321 kts | 114° |
| 2026-05-07 17:26 | 29.42004 | 48.12889 | 10647 ft | 344 kts | 115° |
| 2026-05-07 17:26 | 29.41065 | 48.15510 | 10809 ft | 366 kts | 115° |
| 2026-05-07 17:27 | 29.40099 | 48.18281 | 11093 ft | 381 kts | 114° |
| 2026-05-07 17:27 | 29.39126 | 48.21132 | 11669 ft | 385 kts | 114° |
| 2026-05-07 17:27 | 29.38153 | 48.24002 | 12332 ft | 387 kts | 114° |
| 2026-05-07 17:27 | 29.37170 | 48.26891 | 12958 ft | 391 kts | 114° |
| 2026-05-07 17:28 | 29.36176 | 48.29808 | 13573 ft | 395 kts | 114° |
| 2026-05-07 17:28 | 29.35172 | 48.32749 | 14143 ft | 398 kts | 114° |
| 2026-05-07 17:28 | 29.34158 | 48.35716 | 14692 ft | 402 kts | 114° |
| 2026-05-07 17:28 | 29.33133 | 48.38713 | 15239 ft | 405 kts | 115° |
| 2026-05-07 17:29 | 29.32100 | 48.41735 | 15805 ft | 409 kts | 115° |
| 2026-05-07 17:29 | 29.31057 | 48.44780 | 16353 ft | 412 kts | 115° |
| 2026-05-07 17:29 | 29.30005 | 48.47851 | 16890 ft | 416 kts | 115° |
| 2026-05-07 17:29 | 29.28955 | 48.50915 | 17407 ft | 420 kts | 115° |
| 2026-05-07 17:30 | 29.27880 | 48.54048 | 17924 ft | 424 kts | 115° |
| 2026-05-07 17:30 | 29.26794 | 48.57209 | 18390 ft | 428 kts | 115° |
| 2026-05-07 17:30 | 29.25699 | 48.60396 | 18850 ft | 431 kts | 115° |
| 2026-05-07 17:30 | 29.24597 | 48.63599 | 19338 ft | 433 kts | 115° |
| 2026-05-07 17:31 | 29.23489 | 48.66820 | 19816 ft | 435 kts | 115° |
| 2026-05-07 17:31 | 29.22373 | 48.70058 | 20282 ft | 438 kts | 115° |
| 2026-05-07 17:31 | 29.21251 | 48.73311 | 20751 ft | 440 kts | 116° |
| 2026-05-07 17:31 | 29.20123 | 48.76578 | 21209 ft | 443 kts | 116° |
| 2026-05-07 17:32 | 29.18988 | 48.79863 | 21655 ft | 445 kts | 116° |
| 2026-05-07 17:32 | 29.17862 | 48.83121 | 22099 ft | 447 kts | 116° |
| 2026-05-07 17:32 | 29.16701 | 48.86477 | 22545 ft | 449 kts | 116° |
| 2026-05-07 17:32 | 29.15937 | 48.88682 | 22824 ft | 451 kts | 116° |
| 2026-05-07 17:33 | 29.14862 | 48.92068 | 23215 ft | 458 kts | 108° |
| 2026-05-07 17:33 | 29.14299 | 48.96233 | 23626 ft | 465 kts | 100° |
| 2026-05-07 17:33 | 29.13946 | 48.99927 | 23932 ft | 468 kts | 99° |
| 2026-05-07 17:33 | 29.13604 | 49.03644 | 24219 ft | 471 kts | 99° |
| 2026-05-07 17:34 | 29.13246 | 49.07385 | 24507 ft | 474 kts | 100° |
| 2026-05-07 17:34 | 29.12867 | 49.11142 | 24806 ft | 477 kts | 100° |
| 2026-05-07 17:34 | 29.12469 | 49.14915 | 25095 ft | 479 kts | 101° |
| 2026-05-07 17:34 | 29.12059 | 49.18705 | 25383 ft | 482 kts | 101° |
| 2026-05-07 17:35 | 29.11641 | 49.22520 | 25670 ft | 485 kts | 101° |
| 2026-05-07 17:35 | 29.11220 | 49.26351 | 25952 ft | 487 kts | 101° |
| 2026-05-07 17:35 | 29.10806 | 49.30111 | 26219 ft | 490 kts | 101° |
| 2026-05-07 17:35 | 29.10380 | 49.33986 | 26497 ft | 492 kts | 101° |
| 2026-05-07 17:36 | 29.09953 | 49.37873 | 26838 ft | 493 kts | 101° |
| 2026-05-07 17:36 | 29.09525 | 49.41760 | 27228 ft | 492 kts | 101° |
| 2026-05-07 17:36 | 29.09097 | 49.45636 | 27631 ft | 491 kts | 101° |
| 2026-05-07 17:36 | 29.08812 | 49.48206 | 27887 ft | 492 kts | 100° |
| 2026-05-07 17:37 | 29.08606 | 49.52129 | 28221 ft | 496 kts | 92° |
| 2026-05-07 17:37 | 29.08874 | 49.56072 | 28586 ft | 499 kts | 83° |
| 2026-05-07 17:37 | 29.09646 | 49.59949 | 28980 ft | 501 kts | 76° |
| 2026-05-07 17:37 | 29.10895 | 49.65030 | 29474 ft | 501 kts | 75° |
| 2026-05-07 17:38 | 29.11545 | 49.67626 | 29709 ft | 502 kts | 75° |
| 2026-05-07 17:38 | 29.12479 | 49.71419 | 30035 ft | 503 kts | 76° |
| 2026-05-07 17:38 | 29.13404 | 49.75284 | 30326 ft | 504 kts | 76° |
| 2026-05-07 17:38 | 29.14311 | 49.79164 | 30590 ft | 505 kts | 77° |
| 2026-05-07 17:39 | 29.15211 | 49.83056 | 30840 ft | 507 kts | 77° |
| 2026-05-07 17:39 | 29.16113 | 49.86960 | 31108 ft | 508 kts | 77° |
| 2026-05-07 17:39 | 29.17020 | 49.90877 | 31380 ft | 510 kts | 77° |
| 2026-05-07 17:39 | 29.17927 | 49.94799 | 31648 ft | 511 kts | 77° |
| 2026-05-07 17:40 | 29.18834 | 49.98730 | 31902 ft | 512 kts | 77° |
| 2026-05-07 17:40 | 29.19744 | 50.02676 | 32155 ft | 513 kts | 77° |
| 2026-05-07 17:40 | 29.20653 | 50.06627 | 32432 ft | 514 kts | 77° |
| 2026-05-07 17:40 | 29.21563 | 50.10585 | 32686 ft | 515 kts | 77° |
| 2026-05-07 17:41 | 29.22474 | 50.14558 | 32945 ft | 516 kts | 77° |
| 2026-05-07 17:41 | 29.23384 | 50.18530 | 33206 ft | 516 kts | 78° |
| 2026-05-07 17:41 | 29.24295 | 50.22511 | 33463 ft | 517 kts | 78° |
| 2026-05-07 17:41 | 29.25205 | 50.26491 | 33718 ft | 517 kts | 78° |
| 2026-05-07 17:42 | 29.26106 | 50.30442 | 33961 ft | 518 kts | 78° |
| 2026-05-07 17:42 | 29.26890 | 50.34516 | 34176 ft | 516 kts | 83° |
| 2026-05-07 17:42 | 29.27460 | 50.38519 | 34404 ft | 515 kts | 85° |
| 2026-05-07 17:42 | 29.27959 | 50.42586 | 34636 ft | 515 kts | 86° |
| 2026-05-07 17:43 | 29.28432 | 50.46653 | 34839 ft | 515 kts | 86° |
| 2026-05-07 17:43 | 29.28910 | 50.50730 | 34862 ft | 520 kts | 85° |
| 2026-05-07 17:43 | 29.29929 | 50.59001 | 34880 ft | 528 kts | 85° |
| 2026-05-07 17:44 | 29.31005 | 50.67392 | 34884 ft | 536 kts | 85° |
| 2026-05-07 17:44 | 29.32099 | 50.75866 | 34875 ft | 538 kts | 84° |
| 2026-05-07 17:45 | 29.33185 | 50.84364 | 34877 ft | 539 kts | 85° |
| 2026-05-07 17:45 | 29.34264 | 50.92883 | 34882 ft | 539 kts | 85° |
| 2026-05-07 17:46 | 29.35327 | 51.01322 | 34885 ft | 538 kts | 85° |
| 2026-05-07 17:46 | 29.36390 | 51.09805 | 34912 ft | 537 kts | 84° |
| 2026-05-07 17:47 | 29.37443 | 51.18259 | 34920 ft | 535 kts | 84° |
| 2026-05-07 17:47 | 29.38491 | 51.26702 | 34940 ft | 533 kts | 84° |
| 2026-05-07 17:48 | 29.39525 | 51.35117 | 34966 ft | 532 kts | 84° |
| 2026-05-07 17:48 | 29.40546 | 51.43514 | 34980 ft | 529 kts | 84° |
| 2026-05-07 17:49 | 29.41560 | 51.51868 | 34993 ft | 528 kts | 84° |
| 2026-05-07 17:49 | 29.42576 | 51.60256 | 35025 ft | 534 kts | 84° |
| 2026-05-07 17:50 | 29.43593 | 51.68720 | 35047 ft | 537 kts | 84° |
| 2026-05-07 17:50 | 29.44603 | 51.77186 | 35035 ft | 540 kts | 84° |
| 2026-05-07 17:51 | 29.45606 | 51.85694 | 35059 ft | 534 kts | 84° |
| 2026-05-07 17:51 | 29.46594 | 51.94105 | 35089 ft | 530 kts | 84° |
| 2026-05-07 17:52 | 29.47574 | 52.02507 | 35111 ft | 532 kts | 84° |
| 2026-05-07 17:52 | 29.48555 | 52.10946 | 35132 ft | 534 kts | 84° |
| 2026-05-07 17:53 | 29.49536 | 52.19442 | 35135 ft | 537 kts | 84° |
| 2026-05-07 17:53 | 29.50505 | 52.27881 | 35132 ft | 536 kts | 84° |
| 2026-05-07 17:54 | 29.51472 | 52.36349 | 35135 ft | 534 kts | 84° |
| 2026-05-07 17:54 | 29.52433 | 52.44811 | 35138 ft | 534 kts | 85° |
| 2026-05-07 17:55 | 29.53505 | 52.53232 | 35125 ft | 534 kts | 74° |
| 2026-05-07 17:55 | 29.54611 | 52.56452 | 35145 ft | 531 kts | 59° |
| 2026-05-07 17:55 | 29.56660 | 52.59950 | 35147 ft | 525 kts | 45° |
| 2026-05-07 17:56 | 29.59303 | 52.62779 | 35145 ft | 514 kts | 29° |
| 2026-05-07 17:56 | 29.62296 | 52.64965 | 35163 ft | 509 kts | 25° |
| 2026-05-07 17:56 | 29.68409 | 52.69097 | 35143 ft | 509 kts | 25° |
| 2026-05-07 17:57 | 29.73488 | 52.72540 | 35135 ft | 510 kts | 25° |
| 2026-05-07 17:57 | 29.80606 | 52.77488 | 35106 ft | 513 kts | 25° |
| 2026-05-07 17:58 | 29.86657 | 52.81749 | 35111 ft | 513 kts | 25° |
| 2026-05-07 17:58 | 29.92747 | 52.86045 | 35104 ft | 513 kts | 25° |
| 2026-05-07 17:59 | 29.98845 | 52.90348 | 35111 ft | 514 kts | 25° |
| 2026-05-07 17:59 | 30.04958 | 52.94665 | 35116 ft | 514 kts | 25° |
| 2026-05-07 18:00 | 30.11069 | 52.98985 | 35110 ft | 515 kts | 25° |
| 2026-05-07 18:00 | 30.17184 | 53.03318 | 35134 ft | 517 kts | 25° |
| 2026-05-07 18:01 | 30.23328 | 53.07675 | 35114 ft | 518 kts | 25° |
| 2026-05-07 18:01 | 30.29470 | 53.12038 | 35123 ft | 517 kts | 25° |
| 2026-05-07 18:02 | 30.38662 | 53.18580 | 35130 ft | 517 kts | 25° |
| 2026-05-07 18:03 | 30.44247 | 53.22563 | 35133 ft | 516 kts | 25° |
| 2026-05-07 18:03 | 30.50359 | 53.26927 | 35132 ft | 516 kts | 25° |
| 2026-05-07 18:04 | 30.56469 | 53.31293 | 35116 ft | 516 kts | 25° |
| 2026-05-07 18:04 | 30.62600 | 53.35673 | 35087 ft | 518 kts | 25° |
| 2026-05-07 18:05 | 30.68689 | 53.40032 | 35073 ft | 517 kts | 25° |
| 2026-05-07 18:05 | 30.74801 | 53.44417 | 35063 ft | 515 kts | 25° |
| 2026-05-07 18:06 | 30.80891 | 53.48791 | 35043 ft | 513 kts | 25° |
| 2026-05-07 18:06 | 30.86964 | 53.53160 | 35023 ft | 512 kts | 25° |
| 2026-05-07 18:07 | 30.93025 | 53.57525 | 35010 ft | 511 kts | 25° |
| 2026-05-07 18:07 | 30.99071 | 53.61893 | 35000 ft | 511 kts | 25° |
| 2026-05-07 18:08 | 31.05106 | 53.66264 | 34997 ft | 511 kts | 25° |
| 2026-05-07 18:08 | 31.11106 | 53.70617 | 35000 ft | 511 kts | 25° |
| 2026-05-07 18:09 | 31.17152 | 53.75010 | 35002 ft | 512 kts | 25° |
| 2026-05-07 18:09 | 31.23211 | 53.79418 | 35014 ft | 513 kts | 25° |
| 2026-05-07 18:10 | 31.29271 | 53.83834 | 35028 ft | 514 kts | 25° |
| 2026-05-07 18:10 | 31.35348 | 53.88271 | 35035 ft | 515 kts | 25° |
| 2026-05-07 18:11 | 31.41424 | 53.92714 | 35046 ft | 515 kts | 25° |
| 2026-05-07 18:11 | 31.47495 | 53.97159 | 35053 ft | 514 kts | 25° |
| 2026-05-07 18:12 | 31.53558 | 54.01600 | 35051 ft | 513 kts | 25° |
| 2026-05-07 18:12 | 31.59570 | 54.06008 | 35065 ft | 513 kts | 25° |
| 2026-05-07 18:13 | 31.65608 | 54.10445 | 35061 ft | 511 kts | 25° |
| 2026-05-07 18:13 | 31.71627 | 54.14875 | 35042 ft | 510 kts | 25° |
| 2026-05-07 18:14 | 31.77628 | 54.19299 | 35070 ft | 509 kts | 25° |
| 2026-05-07 18:14 | 31.83619 | 54.23722 | 35081 ft | 507 kts | 25° |
| 2026-05-07 18:15 | 31.89476 | 54.28346 | 35072 ft | 512 kts | 34° |
| 2026-05-07 18:15 | 31.92069 | 54.31251 | 35070 ft | 518 kts | 45° |
| 2026-05-07 18:15 | 31.94386 | 54.34505 | 35088 ft | 518 kts | 47° |
| 2026-05-07 18:16 | 31.98897 | 54.41132 | 35052 ft | 519 kts | 47° |
| 2026-05-07 18:16 | 32.03406 | 54.47690 | 35028 ft | 518 kts | 47° |
| 2026-05-07 18:17 | 32.08002 | 54.54266 | 34986 ft | 519 kts | 46° |
| 2026-05-07 18:17 | 32.12606 | 54.60839 | 34961 ft | 520 kts | 47° |
| 2026-05-07 18:18 | 32.17203 | 54.67427 | 34951 ft | 520 kts | 47° |
| 2026-05-07 18:18 | 32.21800 | 54.74030 | 34948 ft | 520 kts | 47° |
| 2026-05-07 18:19 | 32.26387 | 54.80629 | 34945 ft | 518 kts | 47° |
| 2026-05-07 18:19 | 32.30924 | 54.87170 | 34926 ft | 517 kts | 47° |
| 2026-05-07 18:20 | 32.35477 | 54.93746 | 34919 ft | 515 kts | 47° |
| 2026-05-07 18:20 | 32.40009 | 55.00303 | 34913 ft | 514 kts | 47° |
| 2026-05-07 18:21 | 32.44533 | 55.06861 | 34901 ft | 514 kts | 47° |
| 2026-05-07 18:21 | 32.49045 | 55.13411 | 34901 ft | 512 kts | 47° |
| 2026-05-07 18:22 | 32.53543 | 55.19946 | 34933 ft | 511 kts | 46° |
| 2026-05-07 18:22 | 32.58035 | 55.26485 | 34914 ft | 510 kts | 47° |
| 2026-05-07 18:23 | 32.62502 | 55.33004 | 34910 ft | 508 kts | 47° |
| 2026-05-07 18:23 | 32.66919 | 55.39457 | 34914 ft | 506 kts | 47° |
| 2026-05-07 18:24 | 32.71353 | 55.45942 | 34924 ft | 505 kts | 47° |
| 2026-05-07 18:24 | 32.75774 | 55.52419 | 34918 ft | 504 kts | 47° |
| 2026-05-07 18:25 | 32.80187 | 55.58896 | 34927 ft | 504 kts | 47° |
| 2026-05-07 18:25 | 32.83853 | 55.64288 | 34909 ft | 504 kts | 47° |
| 2026-05-07 18:26 | 32.88258 | 55.70776 | 34908 ft | 505 kts | 47° |
| 2026-05-07 18:26 | 32.92672 | 55.77286 | 34901 ft | 505 kts | 47° |
| 2026-05-07 18:27 | 32.97085 | 55.83813 | 34905 ft | 507 kts | 47° |
| 2026-05-07 18:27 | 33.01510 | 55.90370 | 34900 ft | 508 kts | 47° |
| 2026-05-07 18:28 | 33.05948 | 55.96961 | 34896 ft | 510 kts | 48° |
| 2026-05-07 18:28 | 33.10396 | 56.03578 | 34897 ft | 512 kts | 48° |
| 2026-05-07 18:29 | 33.14826 | 56.10180 | 34890 ft | 513 kts | 48° |
| 2026-05-07 18:29 | 33.19279 | 56.16829 | 34902 ft | 512 kts | 48° |
| 2026-05-07 18:30 | 33.23725 | 56.23479 | 34896 ft | 512 kts | 48° |
| 2026-05-07 18:30 | 33.28161 | 56.30127 | 34902 ft | 511 kts | 48° |
| 2026-05-07 18:31 | 33.32586 | 56.36765 | 34903 ft | 510 kts | 48° |
| 2026-05-07 18:31 | 33.37001 | 56.43394 | 34908 ft | 509 kts | 48° |
| 2026-05-07 18:32 | 33.41409 | 56.50024 | 34883 ft | 508 kts | 48° |
| 2026-05-07 18:32 | 33.45799 | 56.56643 | 34884 ft | 507 kts | 48° |
| 2026-05-07 18:33 | 33.50154 | 56.63219 | 34876 ft | 507 kts | 48° |
| 2026-05-07 18:33 | 33.54527 | 56.69841 | 34874 ft | 506 kts | 48° |
| 2026-05-07 18:34 | 33.58899 | 56.76475 | 34871 ft | 507 kts | 48° |
| 2026-05-07 18:34 | 33.63271 | 56.83121 | 34879 ft | 508 kts | 48° |
| 2026-05-07 18:35 | 33.67714 | 56.89708 | 34880 ft | 506 kts | 42° |
| 2026-05-07 18:35 | 33.72879 | 56.95397 | 34907 ft | 503 kts | 36° |
| 2026-05-07 18:36 | 33.78185 | 57.00896 | 34919 ft | 504 kts | 36° |
| 2026-05-07 18:36 | 33.83477 | 57.06461 | 34930 ft | 506 kts | 36° |
| 2026-05-07 18:37 | 33.88751 | 57.12093 | 34936 ft | 507 kts | 37° |
| 2026-05-07 18:37 | 33.93979 | 57.17709 | 34927 ft | 500 kts | 37° |
| 2026-05-07 18:38 | 33.99149 | 57.23260 | 34932 ft | 501 kts | 37° |
| 2026-05-07 18:38 | 34.04358 | 57.28855 | 34935 ft | 502 kts | 37° |
| 2026-05-07 18:39 | 34.09573 | 57.34470 | 34935 ft | 503 kts | 37° |
| 2026-05-07 18:39 | 34.14799 | 57.40102 | 34932 ft | 504 kts | 36° |
| 2026-05-07 18:40 | 34.20087 | 57.45657 | 34929 ft | 503 kts | 36° |
| 2026-05-07 18:40 | 34.25395 | 57.51182 | 34928 ft | 503 kts | 36° |
| 2026-05-07 18:41 | 34.30688 | 57.56725 | 34931 ft | 503 kts | 36° |
| 2026-05-07 18:41 | 34.35968 | 57.62279 | 34929 ft | 502 kts | 36° |
| 2026-05-07 18:42 | 34.41203 | 57.67795 | 34933 ft | 502 kts | 36° |
| 2026-05-07 18:42 | 34.46467 | 57.73343 | 34939 ft | 501 kts | 36° |
| 2026-05-07 18:43 | 34.51722 | 57.78881 | 34943 ft | 500 kts | 36° |
| 2026-05-07 18:43 | 34.56970 | 57.84421 | 34946 ft | 500 kts | 36° |
| 2026-05-07 18:44 | 34.62207 | 57.89963 | 34939 ft | 499 kts | 36° |
| 2026-05-07 18:44 | 34.67437 | 57.95507 | 34944 ft | 499 kts | 36° |
| 2026-05-07 18:45 | 34.72663 | 58.01058 | 34941 ft | 498 kts | 35° |
| 2026-05-07 18:45 | 34.77879 | 58.06607 | 34938 ft | 498 kts | 35° |
| 2026-05-07 18:46 | 34.83094 | 58.12165 | 34938 ft | 498 kts | 35° |
| 2026-05-07 18:46 | 34.88267 | 58.17687 | 34935 ft | 498 kts | 35° |
| 2026-05-07 18:47 | 34.93477 | 58.23257 | 34936 ft | 498 kts | 35° |
| 2026-05-07 18:47 | 34.98685 | 58.28837 | 34941 ft | 499 kts | 35° |
| 2026-05-07 18:48 | 35.03899 | 58.34433 | 34945 ft | 499 kts | 35° |
| 2026-05-07 18:48 | 35.09111 | 58.40036 | 34946 ft | 499 kts | 35° |
| 2026-05-07 18:49 | 35.14321 | 58.45648 | 34972 ft | 500 kts | 35° |
| 2026-05-07 18:49 | 35.19545 | 58.51283 | 34982 ft | 501 kts | 36° |
| 2026-05-07 18:50 | 35.24777 | 58.56938 | 34987 ft | 502 kts | 36° |
| 2026-05-07 18:50 | 35.29973 | 58.62565 | 35000 ft | 502 kts | 36° |
| 2026-05-07 18:51 | 35.35203 | 58.68241 | 35006 ft | 502 kts | 36° |
| 2026-05-07 18:51 | 35.40419 | 58.73910 | 35030 ft | 500 kts | 36° |
| 2026-05-07 18:52 | 35.45625 | 58.79578 | 35034 ft | 500 kts | 36° |
| 2026-05-07 18:52 | 35.50819 | 58.85240 | 35042 ft | 499 kts | 35° |
| 2026-05-07 18:53 | 35.56000 | 58.90888 | 35033 ft | 497 kts | 35° |
| 2026-05-07 18:53 | 35.61164 | 58.96532 | 35059 ft | 496 kts | 35° |
| 2026-05-07 18:54 | 35.66318 | 59.02174 | 35063 ft | 496 kts | 35° |
| 2026-05-07 18:54 | 35.71474 | 59.07830 | 35071 ft | 496 kts | 35° |
| 2026-05-07 18:55 | 35.76626 | 59.13491 | 35073 ft | 496 kts | 35° |
| 2026-05-07 18:55 | 35.81741 | 59.19121 | 35082 ft | 497 kts | 35° |
| 2026-05-07 18:56 | 35.86891 | 59.24801 | 35092 ft | 497 kts | 35° |
| 2026-05-07 18:56 | 35.92038 | 59.30489 | 35105 ft | 497 kts | 35° |
| 2026-05-07 18:57 | 35.97187 | 59.36188 | 35111 ft | 497 kts | 35° |
| 2026-05-07 18:57 | 36.02329 | 59.41891 | 35124 ft | 496 kts | 35° |
| 2026-05-07 18:58 | 36.07455 | 59.47587 | 35152 ft | 495 kts | 35° |
| 2026-05-07 18:58 | 36.12569 | 59.53279 | 35156 ft | 495 kts | 35° |
| 2026-05-07 18:59 | 36.17681 | 59.58979 | 35148 ft | 494 kts | 36° |
| 2026-05-07 18:59 | 36.22774 | 59.64701 | 35153 ft | 496 kts | 38° |
| 2026-05-07 19:00 | 36.27279 | 59.71264 | 35158 ft | 502 kts | 46° |
| 2026-05-07 19:00 | 36.31562 | 59.78129 | 35146 ft | 503 kts | 47° |
| 2026-05-07 19:01 | 36.35856 | 59.84974 | 35141 ft | 503 kts | 46° |
| 2026-05-07 19:01 | 36.40185 | 59.91793 | 35131 ft | 503 kts | 46° |
| 2026-05-07 19:02 | 36.44524 | 59.98612 | 35115 ft | 503 kts | 46° |
| 2026-05-07 19:02 | 36.48829 | 60.05394 | 35108 ft | 503 kts | 46° |
| 2026-05-07 19:03 | 36.53159 | 60.12235 | 35112 ft | 502 kts | 46° |
| 2026-05-07 19:03 | 36.57475 | 60.19071 | 35110 ft | 502 kts | 46° |
| 2026-05-07 19:04 | 36.61790 | 60.25919 | 35102 ft | 502 kts | 46° |
| 2026-05-07 19:04 | 36.66105 | 60.32777 | 35088 ft | 503 kts | 46° |
| 2026-05-07 19:05 | 36.70379 | 60.39683 | 35069 ft | 503 kts | 47° |
| 2026-05-07 19:05 | 36.74599 | 60.46571 | 35069 ft | 503 kts | 47° |
| 2026-05-07 19:06 | 36.78847 | 60.53508 | 35060 ft | 502 kts | 47° |
| 2026-05-07 19:06 | 36.85211 | 60.63908 | 35047 ft | 502 kts | 47° |
| 2026-05-07 19:07 | 36.89438 | 60.70832 | 35041 ft | 501 kts | 47° |
| 2026-05-07 19:07 | 36.93659 | 60.77761 | 35036 ft | 500 kts | 47° |
| 2026-05-07 19:08 | 36.97869 | 60.84685 | 35034 ft | 500 kts | 47° |
| 2026-05-07 19:08 | 37.02108 | 60.91591 | 35029 ft | 499 kts | 47° |
| 2026-05-07 19:09 | 37.06349 | 60.98472 | 35024 ft | 499 kts | 47° |
| 2026-05-07 19:09 | 37.10556 | 61.05325 | 35025 ft | 499 kts | 47° |
| 2026-05-07 19:10 | 37.14785 | 61.12238 | 35016 ft | 499 kts | 47° |
| 2026-05-07 19:10 | 37.19010 | 61.19158 | 35013 ft | 500 kts | 47° |
| 2026-05-07 19:11 | 37.23247 | 61.26071 | 35009 ft | 500 kts | 46° |
| 2026-05-07 19:11 | 37.27528 | 61.32944 | 35007 ft | 500 kts | 46° |
| 2026-05-07 19:12 | 37.31091 | 61.38663 | 35002 ft | 500 kts | 46° |
| 2026-05-07 19:12 | 37.36065 | 61.46687 | 35002 ft | 501 kts | 46° |
| 2026-05-07 19:13 | 37.40339 | 61.53609 | 34994 ft | 501 kts | 47° |
| 2026-05-07 19:13 | 37.44610 | 61.60542 | 34989 ft | 501 kts | 47° |
| 2026-05-07 19:14 | 37.48158 | 61.66311 | 34989 ft | 501 kts | 47° |
| 2026-05-07 19:14 | 37.52418 | 61.73250 | 34990 ft | 501 kts | 47° |
| 2026-05-07 19:15 | 37.56674 | 61.80199 | 34993 ft | 500 kts | 47° |
| 2026-05-07 19:15 | 37.60902 | 61.87169 | 34992 ft | 502 kts | 50° |
| 2026-05-07 19:16 | 37.64116 | 61.95051 | 35000 ft | 509 kts | 66° |
| 2026-05-07 19:16 | 37.66547 | 62.03391 | 34990 ft | 509 kts | 67° |
| 2026-05-07 19:17 | 37.68962 | 62.11802 | 34982 ft | 509 kts | 66° |
| 2026-05-07 19:17 | 37.71418 | 62.20179 | 34976 ft | 508 kts | 66° |
| 2026-05-07 19:18 | 37.73897 | 62.28539 | 34968 ft | 508 kts | 66° |
| 2026-05-07 19:18 | 37.76372 | 62.36891 | 34963 ft | 507 kts | 66° |
| 2026-05-07 19:19 | 37.78837 | 62.45241 | 34964 ft | 507 kts | 66° |
| 2026-05-07 19:19 | 37.81295 | 62.53603 | 34957 ft | 507 kts | 66° |
| 2026-05-07 19:20 | 37.83728 | 62.61908 | 34956 ft | 506 kts | 66° |
| 2026-05-07 19:20 | 37.86167 | 62.70258 | 34959 ft | 506 kts | 66° |
| 2026-05-07 19:21 | 37.88599 | 62.78612 | 34951 ft | 505 kts | 66° |
| 2026-05-07 19:21 | 37.91024 | 62.86966 | 34950 ft | 505 kts | 66° |
| 2026-05-07 19:22 | 37.93442 | 62.95321 | 34946 ft | 505 kts | 67° |
| 2026-05-07 19:22 | 37.95851 | 63.03670 | 34941 ft | 505 kts | 67° |
| 2026-05-07 19:23 | 37.98257 | 63.12036 | 34944 ft | 504 kts | 67° |
| 2026-05-07 19:23 | 38.00637 | 63.20336 | 34939 ft | 504 kts | 67° |
| 2026-05-07 19:24 | 38.03025 | 63.28690 | 34938 ft | 504 kts | 67° |
| 2026-05-07 19:24 | 38.05405 | 63.37045 | 34936 ft | 503 kts | 67° |
| 2026-05-07 19:25 | 38.07780 | 63.45406 | 34929 ft | 503 kts | 67° |
| 2026-05-07 19:25 | 38.10145 | 63.53760 | 34929 ft | 503 kts | 67° |
| 2026-05-07 19:26 | 38.12508 | 63.62133 | 34928 ft | 502 kts | 67° |
| 2026-05-07 19:26 | 38.14859 | 63.70489 | 34923 ft | 502 kts | 68° |
| 2026-05-07 19:27 | 38.17201 | 63.78836 | 34925 ft | 501 kts | 68° |
| 2026-05-07 19:27 | 38.19518 | 63.87126 | 34922 ft | 500 kts | 68° |
| 2026-05-07 19:28 | 38.21841 | 63.95458 | 34919 ft | 499 kts | 68° |
| 2026-05-07 19:28 | 38.24155 | 64.03788 | 34919 ft | 499 kts | 68° |
| 2026-05-07 19:29 | 38.26456 | 64.12099 | 34918 ft | 498 kts | 68° |
| 2026-05-07 19:29 | 38.28750 | 64.20406 | 34918 ft | 497 kts | 68° |
| 2026-05-07 19:30 | 38.31033 | 64.28704 | 34917 ft | 496 kts | 68° |
| 2026-05-07 19:30 | 38.33307 | 64.36995 | 34916 ft | 495 kts | 68° |
| 2026-05-07 19:31 | 38.35573 | 64.45282 | 34916 ft | 495 kts | 68° |
| 2026-05-07 19:31 | 38.37815 | 64.53509 | 34913 ft | 494 kts | 69° |
| 2026-05-07 19:32 | 38.40058 | 64.61766 | 34913 ft | 493 kts | 69° |
| 2026-05-07 19:32 | 38.42294 | 64.70022 | 34912 ft | 492 kts | 69° |
| 2026-05-07 19:33 | 38.44518 | 64.78260 | 34914 ft | 490 kts | 69° |
| 2026-05-07 19:33 | 38.46730 | 64.86482 | 34914 ft | 489 kts | 69° |
| 2026-05-07 19:34 | 38.48932 | 64.94693 | 34918 ft | 488 kts | 69° |
| 2026-05-07 19:34 | 38.51125 | 65.02893 | 34915 ft | 487 kts | 69° |
| 2026-05-07 19:35 | 38.53480 | 65.10984 | 34907 ft | 484 kts | 61° |
| 2026-05-07 19:35 | 38.57036 | 65.18211 | 34912 ft | 479 kts | 52° |
| 2026-05-07 19:36 | 38.60811 | 65.25167 | 34919 ft | 479 kts | 52° |
| 2026-05-07 19:36 | 38.64594 | 65.32209 | 34909 ft | 480 kts | 53° |
| 2026-05-07 19:37 | 38.68337 | 65.39287 | 34912 ft | 480 kts | 53° |
| 2026-05-07 19:37 | 38.72048 | 65.46357 | 34915 ft | 480 kts | 53° |
| 2026-05-07 19:38 | 38.75772 | 65.53472 | 34913 ft | 480 kts | 53° |
| 2026-05-07 19:38 | 38.79492 | 65.60591 | 34910 ft | 481 kts | 53° |
| 2026-05-07 19:39 | 38.83211 | 65.67721 | 34912 ft | 481 kts | 53° |
| 2026-05-07 19:39 | 38.86922 | 65.74852 | 34914 ft | 481 kts | 54° |
| 2026-05-07 19:40 | 38.90630 | 65.81992 | 34910 ft | 480 kts | 54° |
| 2026-05-07 19:40 | 38.94332 | 65.89135 | 34914 ft | 480 kts | 54° |
| 2026-05-07 19:41 | 38.98020 | 65.96269 | 34920 ft | 479 kts | 54° |
| 2026-05-07 19:41 | 39.01703 | 66.03408 | 34924 ft | 478 kts | 54° |
| 2026-05-07 19:42 | 39.05349 | 66.10491 | 34926 ft | 478 kts | 54° |
| 2026-05-07 19:42 | 39.09011 | 66.17622 | 34928 ft | 477 kts | 54° |
| 2026-05-07 19:43 | 39.12665 | 66.24753 | 34934 ft | 476 kts | 54° |
| 2026-05-07 19:43 | 39.16309 | 66.31879 | 34941 ft | 476 kts | 54° |
| 2026-05-07 19:44 | 39.19950 | 66.39016 | 34942 ft | 475 kts | 54° |
| 2026-05-07 19:44 | 39.23578 | 66.46143 | 34956 ft | 475 kts | 54° |
| 2026-05-07 19:45 | 39.27199 | 66.53273 | 34964 ft | 475 kts | 54° |
| 2026-05-07 19:45 | 39.30817 | 66.60412 | 34965 ft | 475 kts | 54° |
| 2026-05-07 19:46 | 39.34403 | 66.67504 | 34981 ft | 475 kts | 55° |
| 2026-05-07 19:46 | 39.37697 | 66.74032 | 34983 ft | 475 kts | 54° |
| 2026-05-07 19:47 | 39.41305 | 66.81199 | 34995 ft | 476 kts | 54° |
| 2026-05-07 19:47 | 39.44916 | 66.88387 | 34988 ft | 476 kts | 54° |
| 2026-05-07 19:48 | 39.48519 | 66.95576 | 34991 ft | 476 kts | 54° |
| 2026-05-07 19:48 | 39.52096 | 67.02730 | 35004 ft | 476 kts | 54° |
| 2026-05-07 19:49 | 39.55693 | 67.09939 | 34999 ft | 477 kts | 54° |
| 2026-05-07 19:49 | 39.59295 | 67.17176 | 34998 ft | 478 kts | 55° |
| 2026-05-07 19:50 | 39.62896 | 67.24426 | 34999 ft | 478 kts | 55° |
| 2026-05-07 19:50 | 39.66501 | 67.31701 | 35000 ft | 479 kts | 55° |
| 2026-05-07 19:51 | 39.70097 | 67.38976 | 35003 ft | 479 kts | 55° |
| 2026-05-07 19:51 | 39.73689 | 67.46261 | 35006 ft | 479 kts | 55° |
| 2026-05-07 19:52 | 39.77273 | 67.53543 | 35003 ft | 478 kts | 55° |
| 2026-05-07 19:52 | 39.80778 | 67.60893 | 34997 ft | 479 kts | 61° |
| 2026-05-07 19:53 | 39.82972 | 67.69009 | 35014 ft | 480 kts | 75° |
| 2026-05-07 19:53 | 39.84438 | 67.77476 | 35007 ft | 479 kts | 76° |
| 2026-05-07 19:54 | 39.85889 | 67.85927 | 34998 ft | 478 kts | 76° |
| 2026-05-07 19:54 | 39.87377 | 67.94342 | 35001 ft | 476 kts | 76° |
| 2026-05-07 19:55 | 39.88737 | 68.01942 | 35001 ft | 475 kts | 76° |
| 2026-05-07 19:55 | 39.90229 | 68.10292 | 34994 ft | 473 kts | 76° |
| 2026-05-07 19:56 | 39.91713 | 68.18651 | 34995 ft | 472 kts | 76° |
| 2026-05-07 19:56 | 39.93182 | 68.26972 | 34991 ft | 471 kts | 76° |
| 2026-05-07 19:57 | 39.94645 | 68.35295 | 34988 ft | 471 kts | 76° |
| 2026-05-07 19:57 | 39.96102 | 68.43622 | 34983 ft | 471 kts | 76° |
| 2026-05-07 19:58 | 39.97543 | 68.51891 | 34986 ft | 471 kts | 76° |
| 2026-05-07 19:58 | 39.98987 | 68.60220 | 34990 ft | 471 kts | 76° |
| 2026-05-07 19:59 | 40.00428 | 68.68570 | 34986 ft | 471 kts | 76° |
| 2026-05-07 19:59 | 40.01863 | 68.76917 | 34983 ft | 472 kts | 76° |
| 2026-05-07 20:00 | 40.03292 | 68.85230 | 34977 ft | 472 kts | 75° |
| 2026-05-07 20:00 | 40.05564 | 68.93280 | 34980 ft | 469 kts | 65° |
| 2026-05-07 20:01 | 40.07664 | 69.01285 | 34978 ft | 470 kts | 73° |
| 2026-05-07 20:01 | 40.09294 | 69.09561 | 34968 ft | 471 kts | 75° |
| 2026-05-07 20:02 | 40.10919 | 69.17839 | 34970 ft | 470 kts | 74° |
| 2026-05-07 20:02 | 40.12600 | 69.26085 | 34971 ft | 470 kts | 73° |
| 2026-05-07 20:03 | 40.14014 | 69.32941 | 34978 ft | 469 kts | 73° |
| 2026-05-07 20:03 | 40.15707 | 69.41173 | 34985 ft | 469 kts | 74° |
| 2026-05-07 20:04 | 40.17390 | 69.49408 | 34987 ft | 468 kts | 74° |
| 2026-05-07 20:04 | 40.19064 | 69.57635 | 34995 ft | 468 kts | 74° |
| 2026-05-07 20:05 | 40.19904 | 69.61774 | 34704 ft | 472 kts | 74° |
| 2026-05-07 20:05 | 40.20735 | 69.65872 | 34341 ft | 470 kts | 74° |
| 2026-05-07 20:05 | 40.21566 | 69.69985 | 33987 ft | 465 kts | 75° |
| 2026-05-07 20:05 | 40.22364 | 69.74064 | 33583 ft | 462 kts | 75° |
| 2026-05-07 20:06 | 40.23141 | 69.78164 | 33188 ft | 465 kts | 75° |
| 2026-05-07 20:06 | 40.23911 | 69.82278 | 32806 ft | 466 kts | 75° |
| 2026-05-07 20:06 | 40.24682 | 69.86410 | 32419 ft | 468 kts | 75° |
| 2026-05-07 20:06 | 40.25454 | 69.90547 | 32045 ft | 469 kts | 75° |
| 2026-05-07 20:07 | 40.26230 | 69.94697 | 31670 ft | 469 kts | 75° |
| 2026-05-07 20:07 | 40.27009 | 69.98856 | 31301 ft | 470 kts | 75° |
| 2026-05-07 20:07 | 40.27787 | 70.03017 | 30934 ft | 471 kts | 75° |
| 2026-05-07 20:07 | 40.28565 | 70.07183 | 30575 ft | 472 kts | 75° |
| 2026-05-07 20:08 | 40.29334 | 70.11307 | 30221 ft | 473 kts | 75° |
| 2026-05-07 20:08 | 40.30112 | 70.15492 | 29834 ft | 473 kts | 75° |
| 2026-05-07 20:08 | 40.30892 | 70.19694 | 29421 ft | 474 kts | 75° |
| 2026-05-07 20:08 | 40.31670 | 70.23898 | 29018 ft | 475 kts | 76° |
| 2026-05-07 20:09 | 40.32448 | 70.28113 | 28614 ft | 476 kts | 76° |
| 2026-05-07 20:09 | 40.33227 | 70.32337 | 28218 ft | 477 kts | 76° |
| 2026-05-07 20:09 | 40.34004 | 70.36564 | 27828 ft | 477 kts | 76° |
| 2026-05-07 20:10 | 40.35561 | 70.45042 | 27062 ft | 479 kts | 75° |
| 2026-05-07 20:10 | 40.36346 | 70.49291 | 26678 ft | 480 kts | 75° |
| 2026-05-07 20:10 | 40.37130 | 70.53552 | 26318 ft | 481 kts | 76° |
| 2026-05-07 20:10 | 40.37910 | 70.57819 | 25948 ft | 482 kts | 76° |
| 2026-05-07 20:11 | 40.38692 | 70.62104 | 25591 ft | 482 kts | 76° |
| 2026-05-07 20:11 | 40.39471 | 70.66385 | 25229 ft | 482 kts | 76° |
| 2026-05-07 20:11 | 40.40235 | 70.70591 | 24874 ft | 474 kts | 76° |
| 2026-05-07 20:11 | 40.40988 | 70.74749 | 24516 ft | 463 kts | 76° |
| 2026-05-07 20:12 | 40.41721 | 70.78808 | 24162 ft | 452 kts | 75° |
| 2026-05-07 20:12 | 40.42438 | 70.82782 | 23820 ft | 442 kts | 75° |
| 2026-05-07 20:12 | 40.43139 | 70.86670 | 23462 ft | 433 kts | 75° |
| 2026-05-07 20:12 | 40.43826 | 70.90489 | 23059 ft | 425 kts | 75° |
| 2026-05-07 20:13 | 40.44499 | 70.94234 | 22661 ft | 418 kts | 75° |
| 2026-05-07 20:13 | 40.45159 | 70.97920 | 22268 ft | 411 kts | 75° |
| 2026-05-07 20:13 | 40.45805 | 71.01546 | 21880 ft | 405 kts | 76° |
| 2026-05-07 20:13 | 40.46196 | 71.05203 | 21488 ft | 402 kts | 86° |
| 2026-05-07 20:14 | 40.46108 | 71.08851 | 21118 ft | 398 kts | 95° |
| 2026-05-07 20:14 | 40.45815 | 71.12455 | 20748 ft | 394 kts | 96° |
| 2026-05-07 20:14 | 40.45508 | 71.16011 | 20390 ft | 391 kts | 95° |
| 2026-05-07 20:14 | 40.45222 | 71.19499 | 20030 ft | 387 kts | 95° |
| 2026-05-07 20:15 | 40.44952 | 71.23003 | 19681 ft | 384 kts | 95° |
| 2026-05-07 20:15 | 40.44689 | 71.26485 | 19323 ft | 382 kts | 95° |
| 2026-05-07 20:15 | 40.44435 | 71.29969 | 18985 ft | 383 kts | 95° |
| 2026-05-07 20:15 | 40.44187 | 71.33457 | 18651 ft | 385 kts | 95° |
| 2026-05-07 20:16 | 40.43940 | 71.36954 | 18310 ft | 384 kts | 95° |
| 2026-05-07 20:16 | 40.43693 | 71.40429 | 17934 ft | 382 kts | 95° |
| 2026-05-07 20:16 | 40.43445 | 71.43890 | 17549 ft | 380 kts | 95° |
| 2026-05-07 20:16 | 40.43197 | 71.47330 | 17170 ft | 378 kts | 95° |
| 2026-05-07 20:17 | 40.42948 | 71.50757 | 16798 ft | 376 kts | 95° |
| 2026-05-07 20:17 | 40.42700 | 71.54162 | 16426 ft | 374 kts | 95° |
| 2026-05-07 20:17 | 40.42451 | 71.57550 | 16060 ft | 372 kts | 95° |
| 2026-05-07 20:17 | 40.42203 | 71.60930 | 15697 ft | 370 kts | 95° |
| 2026-05-07 20:18 | 40.41956 | 71.64287 | 15335 ft | 368 kts | 96° |
| 2026-05-07 20:18 | 40.41709 | 71.67620 | 14985 ft | 366 kts | 96° |
| 2026-05-07 20:18 | 40.41466 | 71.70932 | 14635 ft | 364 kts | 94° |
| 2026-05-07 20:18 | 40.41631 | 71.74189 | 14267 ft | 363 kts | 77° |
| 2026-05-07 20:19 | 40.42516 | 71.77270 | 13932 ft | 361 kts | 60° |
| 2026-05-07 20:19 | 40.43955 | 71.79963 | 13579 ft | 359 kts | 52° |
| 2026-05-07 20:19 | 40.45498 | 71.82538 | 13196 ft | 358 kts | 51° |
| 2026-05-07 20:19 | 40.47024 | 71.85113 | 12806 ft | 355 kts | 52° |
| 2026-05-07 20:20 | 40.48512 | 71.87677 | 12451 ft | 350 kts | 52° |
| 2026-05-07 20:20 | 40.49962 | 71.90210 | 12119 ft | 344 kts | 53° |
| 2026-05-07 20:20 | 40.51381 | 71.92719 | 11819 ft | 339 kts | 53° |
| 2026-05-07 20:20 | 40.52771 | 71.95188 | 11569 ft | 332 kts | 53° |
| 2026-05-07 20:21 | 40.54131 | 71.97607 | 11317 ft | 326 kts | 53° |
| 2026-05-07 20:21 | 40.55468 | 71.99986 | 11078 ft | 321 kts | 53° |
| 2026-05-07 20:21 | 40.56783 | 72.02324 | 10835 ft | 315 kts | 52° |
| 2026-05-07 20:21 | 40.58063 | 72.04602 | 10594 ft | 311 kts | 52° |
| 2026-05-07 20:22 | 40.59338 | 72.06870 | 10367 ft | 306 kts | 52° |
| 2026-05-07 20:22 | 40.60594 | 72.09108 | 10140 ft | 302 kts | 52° |
| 2026-05-07 20:22 | 40.61835 | 72.11321 | 9904 ft | 298 kts | 52° |
| 2026-05-07 20:22 | 40.63061 | 72.13507 | 9647 ft | 295 kts | 52° |
| 2026-05-07 20:23 | 40.64272 | 72.15669 | 9402 ft | 292 kts | 52° |
| 2026-05-07 20:23 | 40.65470 | 72.17806 | 9151 ft | 288 kts | 52° |
| 2026-05-07 20:23 | 40.66654 | 72.19923 | 8901 ft | 285 kts | 53° |
| 2026-05-07 20:23 | 40.67828 | 72.22021 | 8649 ft | 282 kts | 53° |
| 2026-05-07 20:24 | 40.68985 | 72.24095 | 8403 ft | 280 kts | 54° |
| 2026-05-07 20:24 | 40.69857 | 72.26363 | 8150 ft | 277 kts | 71° |
| 2026-05-07 20:24 | 40.70437 | 72.28739 | 7917 ft | 275 kts | 72° |
| 2026-05-07 20:24 | 40.71005 | 72.31132 | 7679 ft | 272 kts | 72° |
| 2026-05-07 20:25 | 40.71536 | 72.33343 | 7454 ft | 271 kts | 72° |
| 2026-05-07 20:25 | 40.72110 | 72.35698 | 7215 ft | 269 kts | 72° |
| 2026-05-07 20:25 | 40.72684 | 72.38033 | 6981 ft | 267 kts | 71° |
| 2026-05-07 20:25 | 40.73257 | 72.40348 | 6754 ft | 265 kts | 71° |
| 2026-05-07 20:26 | 40.73829 | 72.42646 | 6520 ft | 263 kts | 71° |
| 2026-05-07 20:26 | 40.74397 | 72.44929 | 6277 ft | 261 kts | 71° |
| 2026-05-07 20:26 | 40.74962 | 72.47199 | 6066 ft | 258 kts | 72° |
| 2026-05-07 20:26 | 40.75507 | 72.49405 | 6005 ft | 248 kts | 74° |
| 2026-05-07 20:27 | 40.75592 | 72.51596 | 5995 ft | 234 kts | 104° |
| 2026-05-07 20:27 | 40.74961 | 72.53527 | 5955 ft | 231 kts | 123° |
| 2026-05-07 20:27 | 40.74049 | 72.55257 | 5805 ft | 228 kts | 127° |
| 2026-05-07 20:27 | 40.73121 | 72.56925 | 5593 ft | 222 kts | 127° |
| 2026-05-07 20:28 | 40.72226 | 72.58543 | 5420 ft | 215 kts | 126° |
| 2026-05-07 20:28 | 40.71368 | 72.60108 | 5281 ft | 205 kts | 126° |
| 2026-05-07 20:28 | 40.70550 | 72.61599 | 5150 ft | 198 kts | 126° |
| 2026-05-07 20:28 | 40.69755 | 72.63057 | 5047 ft | 195 kts | 126° |
| 2026-05-07 20:29 | 40.68978 | 72.64483 | 4896 ft | 192 kts | 125° |
| 2026-05-07 20:29 | 40.68214 | 72.65886 | 4710 ft | 184 kts | 125° |
| 2026-05-07 20:29 | 40.67470 | 72.67253 | 4606 ft | 181 kts | 125° |
| 2026-05-07 20:29 | 40.66766 | 72.68546 | 4545 ft | 166 kts | 125° |
| 2026-05-07 20:30 | 40.66105 | 72.69759 | 4345 ft | 160 kts | 125° |
| 2026-05-07 20:30 | 40.65469 | 72.70924 | 4206 ft | 152 kts | 125° |
| 2026-05-07 20:30 | 40.64849 | 72.72064 | 3991 ft | 153 kts | 126° |
| 2026-05-07 20:30 | 40.64220 | 72.73220 | 3777 ft | 155 kts | 125° |
| 2026-05-07 20:31 | 40.63596 | 72.74369 | 3565 ft | 154 kts | 126° |
| 2026-05-07 20:31 | 40.62987 | 72.75520 | 3371 ft | 154 kts | 128° |
| 2026-05-07 20:31 | 40.62360 | 72.76659 | 3176 ft | 151 kts | 127° |
| 2026-05-07 20:31 | 40.61749 | 72.77771 | 3006 ft | 148 kts | 128° |
| 2026-05-07 20:32 | 40.61158 | 72.78849 | 2930 ft | 134 kts | 125° |
| 2026-05-07 20:32 | 40.60879 | 72.79361 | 2934 ft | 44 kts | 126° |
| 2026-05-07 20:32 | 40.60789 | 72.79485 | 2930 ft | 7 kts | 171° |
| 2026-05-07 20:32 | 40.60764 | 72.79476 | 2933 ft | 7 kts | 214° |
| 2026-05-07 20:33 | 40.60705 | 72.79421 | 2934 ft | 11 kts | 217° |
| 2026-05-07 20:33 | 40.60698 | 72.79334 | 2934 ft | 11 kts | 304° |
| 2026-05-07 20:33 | 40.60742 | 72.79253 | 2934 ft | 11 kts | 305° |
| 2026-05-07 20:33 | 40.60795 | 72.79157 | 2931 ft | 15 kts | 305° |
| 2026-05-07 20:34 | 40.60859 | 72.79039 | 2934 ft | 16 kts | 306° |
| 2026-05-07 20:34 | 40.60923 | 72.78920 | 2927 ft | 12 kts | 303° |
| 2026-05-07 20:34 | 40.60908 | 72.78829 | 2933 ft | 12 kts | 221° |
| 2026-05-07 20:34 | 40.60907 | 72.78757 | 2932 ft | 6 kts | 281° |
| 2026-05-07 20:35 | 40.60888 | 72.78723 | 2931 ft | 5 kts | 209° |
| 2026-05-07 20:35 | 40.60860 | 72.78699 | 2934 ft | 5 kts | 214° |
| 2026-05-07 20:35 | 40.60853 | 72.78693 | 2934 ft | 0 kts | 215° |